Time;durP1;ratioP1;P1;durP2;ratioP2;P2;SDS_P1;SDS_P2;PMS_P1;PMS_P2;Temp;Humidity;BMP_temperature;BMP_pressure;BME280_temperature;BME280_humidity;BME280_pressure;Samples;Min_cycle;Max_cycle;Signal;HPM_P1;HPM_P2
2021/06/26 00:00:15;;;;;;;17.23;15.43;;;;;;;14.42;100.00;98311.50;5082054;28;20226;-69
2021/06/26 00:02:43;;;;;;;18.50;16.80;;;;;;;14.38;100.00;98323.53;5080980;28;20436;-70
2021/06/26 00:05:13;;;;;;;17.03;15.43;;;;;;;14.34;100.00;98316.91;5081486;28;20213;-69
2021/06/26 00:07:41;;;;;;;20.60;16.60;;;;;;;14.30;100.00;98321.78;5082444;28;20194;-70
2021/06/26 00:10:11;;;;;;;18.00;16.23;;;;;;;14.24;100.00;98327.81;5081185;28;20221;-68
2021/06/26 00:12:39;;;;;;;20.03;18.03;;;;;;;14.22;100.00;98318.38;5081559;28;20690;-68
2021/06/26 00:15:09;;;;;;;18.37;15.47;;;;;;;14.22;100.00;98332.50;5081982;28;20206;-68
2021/06/26 00:17:37;;;;;;;19.50;17.43;;;;;;;14.15;100.00;98327.06;5080410;28;20206;-68
2021/06/26 00:20:07;;;;;;;18.50;16.90;;;;;;;14.14;100.00;98333.41;5074461;28;20617;-68
2021/06/26 00:22:36;;;;;;;19.57;15.63;;;;;;;14.09;100.00;98327.78;5081478;28;20236;-69
2021/06/26 00:25:05;;;;;;;18.83;16.53;;;;;;;14.09;100.00;98324.28;5082794;28;20210;-68
2021/06/26 00:27:34;;;;;;;19.30;17.27;;;;;;;14.08;100.00;98323.44;5083078;28;20214;-68
2021/06/26 00:30:02;;;;;;;19.23;17.30;;;;;;;14.03;100.00;98320.50;5080216;28;20199;-67
2021/06/26 00:32:30;;;;;;;18.97;16.90;;;;;;;13.96;100.00;98323.03;5082108;28;20198;-71
2021/06/26 00:34:58;;;;;;;19.77;17.80;;;;;;;13.95;100.00;98324.03;5076422;28;20256;-69
2021/06/26 00:37:26;;;;;;;18.47;16.80;;;;;;;13.97;100.00;98323.88;5078842;28;20210;-70
2021/06/26 00:39:56;;;;;;;18.83;16.83;;;;;;;13.96;100.00;98320.38;5079974;28;20235;-69
2021/06/26 00:42:24;;;;;;;18.77;16.87;;;;;;;13.93;100.00;98326.06;5084101;28;20209;-69
2021/06/26 00:44:52;;;;;;;18.30;16.47;;;;;;;13.83;100.00;98318.31;5084061;28;20206;-70
2021/06/26 00:47:20;;;;;;;19.00;17.10;;;;;;;13.82;100.00;98323.81;5085501;28;20206;-69
2021/06/26 00:49:48;;;;;;;19.50;16.97;;;;;;;13.75;100.00;98318.34;5088075;28;20230;-68
2021/06/26 00:52:16;;;;;;;19.17;17.13;;;;;;;13.69;100.00;98319.91;5087511;28;20199;-68
2021/06/26 00:54:44;;;;;;;18.33;15.83;;;;;;;13.67;100.00;98329.91;5082314;28;20207;-69
2021/06/26 00:57:14;;;;;;;18.63;16.53;;;;;;;13.64;100.00;98319.59;5084204;28;20605;-69
2021/06/26 00:59:42;;;;;;;18.40;16.60;;;;;;;13.92;100.00;98315.59;5085138;28;20226;-69
2021/06/26 01:02:10;;;;;;;18.83;16.23;;;;;;;13.90;100.00;98313.09;5086062;28;20202;-68
2021/06/26 01:04:38;;;;;;;18.20;16.37;;;;;;;14.09;100.00;98308.31;5081063;28;20226;-70
2021/06/26 01:07:07;;;;;;;18.63;15.60;;;;;;;13.85;100.00;98318.97;5084324;28;20214;-68
2021/06/26 01:09:35;;;;;;;18.73;16.93;;;;;;;13.79;100.00;98316.19;5085929;28;20515;-68
2021/06/26 01:12:03;;;;;;;17.57;15.80;;;;;;;13.81;100.00;98314.16;5085553;28;20242;-70
2021/06/26 01:14:33;;;;;;;19.03;16.33;;;;;;;13.84;100.00;98308.47;5084967;28;20214;-70
2021/06/26 01:17:05;;;;;;;18.23;16.20;;;;;;;13.87;100.00;98316.97;5086598;28;20202;-68
2021/06/26 01:19:33;;;;;;;18.57;15.47;;;;;;;13.82;100.00;98308.66;5085030;28;20225;-69
2021/06/26 01:22:05;;;;;;;17.43;15.63;;;;;;;13.87;100.00;98316.97;5089542;28;20212;-68
2021/06/26 01:24:34;;;;;;;17.50;15.70;;;;;;;13.91;100.00;98308.59;5085642;28;20202;-68
2021/06/26 01:27:03;;;;;;;16.93;15.23;;;;;;;13.95;100.00;98309.91;5085968;28;20206;-68
2021/06/26 01:29:32;;;;;;;17.30;15.70;;;;;;;13.87;100.00;98298.31;5084748;28;20225;-70
2021/06/26 01:32:00;;;;;;;18.60;15.93;;;;;;;13.88;100.00;98299.97;5086715;28;20191;-67
2021/06/26 01:34:28;;;;;;;17.67;15.83;;;;;;;13.92;100.00;98300.41;5084726;28;20214;-69
2021/06/26 01:36:56;;;;;;;17.50;14.97;;;;;;;13.90;100.00;98305.09;5085234;28;20212;-67
2021/06/26 01:39:24;;;;;;;16.67;15.23;;;;;;;13.91;100.00;98305.94;5084645;28;20226;-68
2021/06/26 01:41:54;;;;;;;18.67;16.07;;;;;;;13.87;100.00;98308.97;5085899;28;20254;-70
2021/06/26 01:44:22;;;;;;;17.50;14.60;;;;;;;13.96;100.00;98309.72;5085491;28;20206;-69
2021/06/26 01:46:50;;;;;;;15.80;14.37;;;;;;;13.94;100.00;98313.59;5085046;28;20309;-68
2021/06/26 01:49:19;;;;;;;17.10;15.57;;;;;;;14.00;100.00;98311.00;5084665;28;20222;-69
2021/06/26 01:51:47;;;;;;;17.77;16.07;;;;;;;13.92;100.00;98312.94;5086072;28;20198;-70
2021/06/26 01:54:15;;;;;;;16.20;14.70;;;;;;;13.94;100.00;98303.75;5085078;28;20512;-69
2021/06/26 01:56:43;;;;;;;16.30;14.93;;;;;;;13.95;100.00;98296.59;5084782;28;20202;-69
2021/06/26 01:59:13;;;;;;;18.00;16.20;;;;;;;13.91;100.00;98304.09;5084504;28;20676;-69
2021/06/26 02:01:41;;;;;;;19.87;17.83;;;;;;;13.89;100.00;98298.13;5083469;28;20229;-68
2021/06/26 02:04:09;;;;;;;20.10;18.07;;;;;;;13.94;100.00;98298.41;5083792;28;20213;-69
2021/06/26 02:06:37;;;;;;;22.10;18.10;;;;;;;13.88;100.00;98299.97;5083625;28;20202;-70
2021/06/26 02:09:06;;;;;;;21.13;18.83;;;;;;;13.83;100.00;98299.69;5084668;28;20232;-70
2021/06/26 02:11:34;;;;;;;19.23;17.33;;;;;;;13.87;100.00;98289.47;5084340;28;20198;-69
2021/06/26 02:14:02;;;;;;;20.63;18.53;;;;;;;13.85;100.00;98291.50;5084582;28;20195;-70
2021/06/26 02:16:31;;;;;;;19.37;17.53;;;;;;;13.84;100.00;98289.84;5083322;28;20437;-69
2021/06/26 02:19:00;;;;;;;21.00;18.33;;;;;;;13.84;100.00;98284.50;5084328;28;20255;-68
2021/06/26 02:21:28;;;;;;;18.83;17.07;;;;;;;13.81;100.00;98282.19;5084515;28;20420;-70
2021/06/26 02:23:56;;;;;;;21.37;19.27;;;;;;;13.84;100.00;98293.34;5083958;28;20201;-69
2021/06/26 02:26:24;;;;;;;20.13;18.33;;;;;;;13.83;100.00;98290.84;5084492;28;20209;-68
2021/06/26 02:28:52;;;;;;;20.33;18.33;;;;;;;13.90;100.00;98297.09;5083915;28;20741;-68
2021/06/26 02:31:20;;;;;;;20.13;18.23;;;;;;;13.88;100.00;98293.78;5083311;28;20221;-68
2021/06/26 02:33:49;;;;;;;19.30;17.37;;;;;;;13.85;100.00;98304.81;5082576;28;20210;-71
2021/06/26 02:36:17;;;;;;;21.87;19.57;;;;;;;13.86;100.00;98298.47;5084224;28;20210;-68
2021/06/26 02:38:45;;;;;;;23.53;20.03;;;;;;;13.96;100.00;98301.72;5085406;28;20226;-69
2021/06/26 02:41:13;;;;;;;23.40;20.30;;;;;;;13.96;100.00;98295.59;5086136;28;20737;-67
2021/06/26 02:43:41;;;;;;;22.37;19.97;;;;;;;13.94;100.00;98303.75;5083138;28;20202;-68
2021/06/26 02:46:09;;;;;;;23.70;21.40;;;;;;;13.92;100.00;98302.28;5084484;28;20499;-68
2021/06/26 02:48:37;;;;;;;23.27;20.77;;;;;;;13.91;100.00;98304.09;5084049;28;20232;-69
2021/06/26 02:51:07;;;;;;;24.93;22.23;;;;;;;13.97;100.00;98299.91;5084013;28;20876;-69
2021/06/26 02:53:35;;;;;;;25.30;22.23;;;;;;;13.93;100.00;98295.94;5083895;28;20209;-69
2021/06/26 02:56:03;;;;;;;26.60;22.37;;;;;;;13.93;100.00;98295.94;5083537;28;20205;-69
2021/06/26 02:58:31;;;;;;;24.47;21.97;;;;;;;13.87;100.00;98292.13;5083814;28;20693;-67
2021/06/26 03:01:00;;;;;;;24.30;21.87;;;;;;;13.84;100.00;98293.34;5080579;28;20230;-67
2021/06/26 03:03:28;;;;;;;24.30;21.60;;;;;;;13.88;100.00;98296.47;5082864;28;20501;-70
2021/06/26 03:05:56;;;;;;;25.23;22.60;;;;;;;13.85;100.00;98299.47;5080867;28;20521;-68
2021/06/26 03:08:25;;;;;;;24.97;22.37;;;;;;;13.84;100.00;98290.69;5083226;28;20586;-68
2021/06/26 03:10:54;;;;;;;25.07;21.43;;;;;;;13.82;100.00;98290.00;5083686;28;20205;-69
2021/06/26 03:13:22;;;;;;;24.53;22.03;;;;;;;13.77;100.00;98292.38;5083119;28;20202;-69
2021/06/26 03:15:49;;;;;;;22.50;20.20;;;;;;;13.79;100.00;98300.19;5083365;28;20214;-68
2021/06/26 03:18:17;;;;;;;23.07;19.97;;;;;;;13.77;100.00;98299.53;5083574;28;20226;-70
2021/06/26 03:20:45;;;;;;;23.53;20.23;;;;;;;13.74;100.00;98298.91;5084190;28;20650;-70
2021/06/26 03:23:13;;;;;;;22.67;20.27;;;;;;;13.73;100.00;98297.25;5083645;28;20233;-68
2021/06/26 03:25:43;;;;;;;24.17;21.73;;;;;;;13.68;100.00;98294.28;5083260;28;20218;-69
2021/06/26 03:28:11;;;;;;;21.80;19.17;;;;;;;13.63;100.00;98287.81;5081499;28;20226;-70
2021/06/26 03:30:39;;;;;;;24.40;20.03;;;;;;;13.58;100.00;98294.50;5080950;28;20210;-68
2021/06/26 03:33:07;;;;;;;25.73;22.50;;;;;;;13.55;100.00;98292.19;5080860;28;20670;-68
2021/06/26 03:35:35;;;;;;;24.03;21.50;;;;;;;13.55;100.00;98283.34;5085796;28;20210;-68
2021/06/26 03:38:03;;;;;;;25.30;22.63;;;;;;;13.54;100.00;98287.88;5083493;28;20224;-68
2021/06/26 03:40:31;;;;;;;27.33;21.97;;;;;;;13.50;100.00;98296.38;5082647;28;20213;-70
2021/06/26 03:43:01;;;;;;;23.13;20.67;;;;;;;13.53;100.00;98301.34;5083364;28;20321;-69
2021/06/26 03:45:29;;;;;;;23.17;20.70;;;;;;;13.55;100.00;98304.66;5080591;28;20744;-69
2021/06/26 03:47:57;;;;;;;24.13;21.47;;;;;;;13.58;100.00;98299.81;5078289;28;20317;-69
2021/06/26 03:50:26;;;;;;;26.60;23.10;;;;;;;13.56;100.00;98301.00;5082317;28;20665;-71
2021/06/26 03:52:54;;;;;;;24.47;22.07;;;;;;;13.64;100.00;98306.28;5082395;28;20209;-70
2021/06/26 03:55:22;;;;;;;23.93;21.43;;;;;;;13.56;100.00;98303.66;5077115;28;20206;-71
2021/06/26 03:57:50;;;;;;;24.10;21.47;;;;;;;13.55;100.00;98313.50;5079114;28;20210;-69
2021/06/26 04:00:20;;;;;;;25.27;21.67;;;;;;;13.60;100.00;98318.28;5079712;28;20206;-71
2021/06/26 04:02:48;;;;;;;23.97;21.50;;;;;;;13.54;100.00;98317.16;5082266;28;20230;-71
2021/06/26 04:05:16;;;;;;;21.13;17.90;;;;;;;13.52;100.00;98311.19;5077738;28;20213;-69
2021/06/26 04:07:44;;;;;;;20.90;18.60;;;;;;;13.56;100.00;98316.97;5082404;28;20206;-69
2021/06/26 04:10:13;;;;;;;20.53;18.37;;;;;;;13.52;100.00;98307.69;5083161;28;20222;-73
2021/06/26 04:12:41;;;;;;;20.87;18.60;;;;;;;13.49;100.00;98316.00;5082721;28;20198;-67
2021/06/26 04:15:09;;;;;;;22.83;20.43;;;;;;;13.48;100.00;98322.34;5080575;28;20495;-70
2021/06/26 04:17:39;;;;;;;23.03;20.27;;;;;;;13.53;100.00;98323.50;5082910;28;20689;-70
2021/06/26 04:20:08;;;;;;;20.87;18.73;;;;;;;13.48;100.00;98315.22;5083243;28;20203;-70
2021/06/26 04:22:36;;;;;;;23.27;20.17;;;;;;;13.50;100.00;98321.19;5082799;28;20241;-70
2021/06/26 04:25:05;;;;;;;22.27;20.13;;;;;;;13.64;100.00;98314.28;5082842;28;20202;-71
2021/06/26 04:27:33;;;;;;;20.70;18.70;;;;;;;13.67;100.00;98321.91;5076833;28;20206;-70
2021/06/26 04:30:02;;;;;;;21.27;19.23;;;;;;;13.61;100.00;98322.59;5081160;28;20226;-70
2021/06/26 04:32:30;;;;;;;20.30;18.30;;;;;;;13.63;100.00;98322.44;5078669;28;20209;-74
2021/06/26 04:34:59;;;;;;;19.63;17.53;;;;;;;13.59;100.00;98335.25;5077109;28;20206;-70
2021/06/26 04:37:27;;;;;;;19.70;17.73;;;;;;;13.65;100.00;98320.41;5076914;28;20218;-70
2021/06/26 04:39:55;;;;;;;22.37;19.00;;;;;;;13.63;100.00;98323.25;5076862;28;20226;-71
2021/06/26 04:42:23;;;;;;;20.73;18.73;;;;;;;13.79;100.00;98318.84;5080896;28;20221;-74
2021/06/26 04:44:51;;;;;;;20.97;18.93;;;;;;;13.91;100.00;98322.75;5079427;28;20589;-71
2021/06/26 04:47:20;;;;;;;18.30;15.67;;;;;;;13.98;100.00;98330.88;5076163;28;20498;-72
2021/06/26 04:49:48;;;;;;;18.10;16.17;;;;;;;13.88;100.00;98328.44;5080055;28;20792;-71
2021/06/26 04:52:17;;;;;;;17.90;15.57;;;;;;;13.90;100.00;98331.75;5086882;28;20569;-70
2021/06/26 04:54:45;;;;;;;16.83;15.13;;;;;;;13.97;100.00;98329.22;5081097;28;20578;-69
2021/06/26 04:57:13;;;;;;;20.57;16.53;;;;;;;13.92;100.00;98328.91;5082217;28;20202;-72
2021/06/26 04:59:41;;;;;;;17.27;15.77;;;;;;;14.08;100.00;98333.31;5082878;28;20375;-71
2021/06/26 05:02:09;;;;;;;15.80;14.63;;;;;;;14.07;100.00;98328.97;5078131;28;20226;-71
2021/06/26 05:04:37;;;;;;;18.90;15.60;;;;;;;14.09;100.00;98329.63;5080327;28;20634;-69
2021/06/26 05:07:05;;;;;;;16.33;14.73;;;;;;;14.17;100.00;98321.56;5080094;28;20293;-68
2021/06/26 05:09:35;;;;;;;17.67;15.83;;;;;;;14.30;100.00;98318.28;5080437;28;20234;-71
2021/06/26 05:12:04;;;;;;;18.30;16.50;;;;;;;14.35;100.00;98317.72;5082642;28;20198;-72
2021/06/26 05:14:32;;;;;;;16.30;14.77;;;;;;;14.28;100.00;98321.13;5083077;28;20222;-74
2021/06/26 05:16:59;;;;;;;17.30;15.60;;;;;;;14.32;100.00;98322.41;5080588;28;20489;-70
2021/06/26 05:19:28;;;;;;;18.73;16.97;;;;;;;14.33;100.00;98324.06;5081882;28;20229;-68
2021/06/26 05:21:56;;;;;;;20.03;17.87;;;;;;;14.44;100.00;98320.16;5082607;28;20806;-69
2021/06/26 05:24:24;;;;;;;19.97;17.93;;;;;;;14.65;100.00;98323.97;5081927;28;20203;-70
2021/06/26 05:26:53;;;;;;;20.47;18.57;;;;;;;14.64;100.00;98330.31;5083380;28;20261;-71
2021/06/26 05:29:21;;;;;;;27.37;24.60;;;;;;;14.76;100.00;98323.53;5085176;28;20226;-71
2021/06/26 05:31:49;;;;;;;29.73;25.10;;;;;;;14.79;100.00;98332.19;5084884;28;20230;-69
2021/06/26 05:34:17;;;;;;;29.80;25.60;;;;;;;14.85;100.00;98339.47;5084012;28;20198;-69
2021/06/26 05:36:45;;;;;;;33.73;30.20;;;;;;;14.90;100.00;98332.56;5086132;28;20206;-72
2021/06/26 05:39:13;;;;;;;34.53;31.03;;;;;;;15.17;100.00;98337.44;5084613;28;20226;-69
2021/06/26 05:41:41;;;;;;;32.07;28.80;;;;;;;15.09;100.00;98338.34;5083574;28;20202;-68
2021/06/26 05:44:11;;;;;;;36.97;32.00;;;;;;;15.29;100.00;98348.47;5085920;28;20222;-68
2021/06/26 05:46:39;;;;;;;40.90;36.77;;;;;;;15.29;100.00;98338.59;5090238;28;20729;-70
2021/06/26 05:49:07;;;;;;;43.40;39.20;;;;;;;15.61;100.00;98339.19;5082455;28;20269;-67
2021/06/26 05:51:35;;;;;;;43.13;38.97;;;;;;;15.67;100.00;98337.63;5085285;28;20376;-68
2021/06/26 05:54:03;;;;;;;39.50;35.40;;;;;;;15.53;100.00;98343.81;5091364;28;20774;-68
2021/06/26 05:56:31;;;;;;;38.53;34.77;;;;;;;15.86;100.00;98335.34;5083091;28;20511;-67
2021/06/26 05:58:59;;;;;;;39.13;35.23;;;;;;;15.76;100.00;98330.34;5086309;28;20233;-67
2021/06/26 06:01:29;;;;;;;38.77;34.93;;;;;;;15.91;100.00;98331.13;5080981;28;20613;-68
2021/06/26 06:03:57;;;;;;;39.70;36.00;;;;;;;16.20;100.00;98337.38;5083132;28;20312;-68
2021/06/26 06:06:25;;;;;;;37.93;34.43;;;;;;;16.13;100.00;98341.00;5087711;28;20558;-69
2021/06/26 06:08:53;;;;;;;38.33;34.83;;;;;;;16.00;100.00;98339.84;5085317;28;20245;-70
2021/06/26 06:11:21;;;;;;;37.63;34.00;;;;;;;16.00;100.00;98342.53;5079243;28;20213;-68
2021/06/26 06:13:49;;;;;;;36.20;32.87;;;;;;;16.26;100.00;98346.47;5084496;28;20202;-67
2021/06/26 06:16:18;;;;;;;36.33;32.77;;;;;;;16.14;100.00;98345.31;5080276;28;20408;-68
2021/06/26 06:18:47;;;;;;;38.00;34.20;;;;;;;16.08;100.00;98346.09;5078913;28;20709;-67
2021/06/26 06:21:15;;;;;;;36.03;32.33;;;;;;;16.13;100.00;98344.50;5076968;28;20195;-69
2021/06/26 06:23:43;;;;;;;34.57;31.27;;;;;;;16.22;100.00;98344.38;5077954;28;20230;-67
2021/06/26 06:26:11;;;;;;;38.07;34.40;;;;;;;16.54;100.00;98350.19;5085184;28;20439;-68
2021/06/26 06:28:39;;;;;;;37.30;33.77;;;;;;;16.41;100.00;98353.59;5083437;28;20789;-67
2021/06/26 06:31:07;;;;;;;36.43;32.70;;;;;;;16.32;100.00;98368.94;5085474;28;20194;-66
2021/06/26 06:33:35;;;;;;;37.47;33.67;;;;;;;16.37;100.00;98363.84;5084481;28;20194;-67
2021/06/26 06:36:07;;;;;;;35.33;32.07;;;;;;;16.29;100.00;98363.97;5080088;28;20203;-67
2021/06/26 06:38:35;;;;;;;36.50;32.90;;;;;;;16.50;100.00;98365.81;5083267;28;20226;-67
2021/06/26 06:41:03;;;;;;;36.63;32.93;;;;;;;16.61;100.00;98362.59;5081946;28;20206;-68
2021/06/26 06:43:31;;;;;;;36.80;33.47;;;;;;;16.82;100.00;98370.75;5083942;28;20685;-67
2021/06/26 06:46:00;;;;;;;36.50;33.07;;;;;;;16.76;100.00;98367.84;5081790;28;20217;-68
2021/06/26 06:48:28;;;;;;;38.47;34.70;;;;;;;16.98;100.00;98378.53;5080954;28;20223;-69
2021/06/26 06:50:56;;;;;;;36.87;33.10;;;;;;;17.19;100.00;98376.78;5076390;28;20534;-67
2021/06/26 06:53:25;;;;;;;36.17;32.53;;;;;;;17.06;100.00;98381.06;5081715;28;20198;-68
2021/06/26 06:55:57;;;;;;;35.77;32.23;;;;;;;17.19;100.00;98382.16;5079883;28;20205;-68
2021/06/26 06:58:25;;;;;;;35.00;31.80;;;;;;;17.12;100.00;98389.31;5081485;28;20229;-71
2021/06/26 07:00:53;;;;;;;34.20;30.83;;;;;;;17.65;100.00;98383.41;5074147;28;20797;-71
2021/06/26 07:03:22;;;;;;;33.60;30.47;;;;;;;17.56;100.00;98381.94;5078535;28;20218;-71
2021/06/26 07:05:50;;;;;;;34.20;31.10;;;;;;;17.57;100.00;98378.22;5084292;28;20230;-71
2021/06/26 07:08:18;;;;;;;32.97;29.83;;;;;;;17.66;100.00;98368.97;5085480;28;20225;-73
2021/06/26 07:10:47;;;;;;;33.10;29.97;;;;;;;17.72;100.00;98372.72;5081509;28;20686;-70
2021/06/26 07:13:15;;;;;;;32.93;30.03;;;;;;;17.91;100.00;98377.31;5082734;28;20206;-71
2021/06/26 07:15:44;;;;;;;34.20;30.77;;;;;;;18.09;100.00;98375.94;5082441;28;20236;-71
2021/06/26 07:18:13;;;;;;;32.73;29.83;;;;;;;18.26;98.00;98371.03;5080706;28;20316;-72
2021/06/26 07:20:41;;;;;;;31.53;28.63;;;;;;;18.19;99.70;98372.88;5084025;28;20658;-71
2021/06/26 07:23:09;;;;;;;33.93;30.80;;;;;;;18.42;97.07;98374.31;5085246;28;20226;-72
2021/06/26 07:25:37;;;;;;;32.53;29.67;;;;;;;18.47;98.83;98375.38;5083022;28;20202;-72
2021/06/26 07:28:06;;;;;;;32.27;29.00;;;;;;;18.48;100.00;98376.19;5078494;28;20626;-74
2021/06/26 07:30:34;;;;;;;34.30;30.80;;;;;;;18.71;99.81;98373.06;5082735;28;20480;-71
2021/06/26 07:33:03;;;;;;;32.27;29.33;;;;;;;18.71;98.20;98369.59;5080596;28;20203;-71
2021/06/26 07:35:31;;;;;;;33.50;30.30;;;;;;;18.64;99.44;98365.03;5086847;28;20221;-72
2021/06/26 07:38:00;;;;;;;33.03;29.93;;;;;;;18.86;96.93;98367.50;5081847;28;20226;-71
2021/06/26 07:40:29;;;;;;;34.90;31.57;;;;;;;19.02;97.42;98368.13;5082303;28;20237;-71
2021/06/26 07:42:58;;;;;;;31.00;27.93;;;;;;;18.97;98.84;98363.34;5080404;28;20202;-71
2021/06/26 07:45:28;;;;;;;32.23;29.23;;;;;;;18.93;97.44;98364.81;5077771;28;20321;-73
2021/06/26 07:47:57;;;;;;;32.33;29.27;;;;;;;18.92;95.73;98357.78;5079338;28;20575;-71
2021/06/26 07:50:25;;;;;;;30.60;27.57;;;;;;;19.03;92.89;98357.16;5077907;28;20245;-72
2021/06/26 07:52:53;;;;;;;33.07;29.93;;;;;;;19.07;95.14;98358.38;5081398;28;20198;-72
2021/06/26 07:55:21;;;;;;;32.77;29.53;;;;;;;18.97;96.00;98354.47;5082524;28;20202;-72
2021/06/26 07:57:49;;;;;;;31.97;28.80;;;;;;;18.90;92.93;98351.78;5081249;28;20683;-70
2021/06/26 08:00:18;;;;;;;30.17;27.47;;;;;;;19.19;93.46;98345.13;5080775;28;20203;-71
2021/06/26 08:02:47;;;;;;;30.60;27.70;;;;;;;19.36;88.95;98350.88;5083530;28;20711;-71
2021/06/26 08:05:16;;;;;;;31.63;28.70;;;;;;;18.94;94.76;98342.28;5081792;28;20222;-73
2021/06/26 08:07:52;;;;;;;31.87;28.73;;;;;;;19.20;91.44;98341.41;5081632;28;20436;-72
2021/06/26 08:10:21;;;;;;;32.80;29.60;;;;;;;18.97;94.89;98335.69;5083942;28;20202;-71
2021/06/26 08:12:49;;;;;;;32.77;29.87;;;;;;;19.18;88.17;98340.00;5083873;28;20225;-71
2021/06/26 08:15:18;;;;;;;31.23;28.37;;;;;;;19.01;91.62;98336.94;5079984;28;20206;-71
2021/06/26 08:17:47;;;;;;;29.93;27.20;;;;;;;19.45;90.50;98331.81;5083227;28;20261;-71
2021/06/26 08:20:15;;;;;;;30.33;27.47;;;;;;;19.39;89.92;98328.13;5082964;28;20616;-71
2021/06/26 08:22:43;;;;;;;30.63;27.40;;;;;;;19.36;89.08;98329.38;5083166;28;20213;-72
2021/06/26 08:25:12;;;;;;;30.07;27.37;;;;;;;19.23;93.17;98324.06;5079567;28;20222;-71
2021/06/26 08:27:40;;;;;;;31.10;28.13;;;;;;;19.28;92.52;98326.94;5082723;28;20208;-71
2021/06/26 08:30:08;;;;;;;28.17;25.67;;;;;;;19.37;92.64;98327.53;5078472;28;20213;-71
2021/06/26 08:32:36;;;;;;;28.93;26.23;;;;;;;19.64;92.84;98319.31;5079965;28;20209;-70
2021/06/26 08:35:07;;;;;;;27.47;25.00;;;;;;;19.69;88.86;98319.50;5081061;28;20198;-72
2021/06/26 08:37:36;;;;;;;31.60;28.40;;;;;;;20.00;86.12;98312.50;5082241;28;20202;-72
2021/06/26 08:40:04;;;;;;;31.50;28.60;;;;;;;19.86;85.96;98316.31;5084226;28;20222;-70
2021/06/26 08:42:32;;;;;;;30.17;27.57;;;;;;;19.53;84.25;98321.66;5081441;28;20213;-72
2021/06/26 08:45:02;;;;;;;28.13;24.77;;;;;;;19.82;85.07;98321.28;5082048;28;20586;-72
2021/06/26 08:47:30;;;;;;;27.60;25.10;;;;;;;20.02;85.36;98323.06;5080907;28;20216;-71
2021/06/26 08:49:58;;;;;;;31.80;28.90;;;;;;;19.98;85.31;98309.22;5080276;28;20222;-71
2021/06/26 08:52:28;;;;;;;30.20;27.23;;;;;;;20.21;87.81;98314.00;5082247;28;20207;-72
2021/06/26 08:54:56;;;;;;;27.73;25.23;;;;;;;20.64;83.58;98316.97;5076821;28;20198;-73
2021/06/26 08:57:28;;;;;;;28.17;25.83;;;;;;;20.66;84.33;98310.31;5080408;28;20202;-70
2021/06/26 08:59:58;;;;;;;28.50;25.93;;;;;;;20.82;80.53;98311.66;5082630;28;20608;-73
2021/06/26 09:02:27;;;;;;;27.07;24.67;;;;;;;20.89;82.63;98311.59;5085605;28;20198;-73
2021/06/26 09:04:56;;;;;;;27.53;25.13;;;;;;;20.99;82.70;98308.34;5086262;28;20226;-71
2021/06/26 09:07:29;;;;;;;26.60;24.17;;;;;;;21.14;81.55;98312.56;5086658;28;20202;-72
2021/06/26 09:09:58;;;;;;;26.03;23.67;;;;;;;21.38;76.77;98308.94;5083430;28;20233;-72
2021/06/26 09:12:27;;;;;;;27.97;25.10;;;;;;;21.07;75.74;98302.69;5086168;28;20574;-71
2021/06/26 09:14:55;;;;;;;25.07;23.03;;;;;;;21.23;78.33;98303.97;5084469;28;20611;-71
2021/06/26 09:17:33;;;;;;;24.73;22.30;;;;;;;21.56;74.34;98296.50;5076220;28;20217;-73
2021/06/26 09:20:04;;;;;;;24.50;22.40;;;;;;;21.53;75.61;98294.25;5082045;28;20795;-70
2021/06/26 09:22:41;;;;;;;23.27;21.17;;;;;;;21.76;75.84;98288.16;5088778;28;20208;-72
2021/06/26 09:25:28;;;;;;;23.77;21.87;;;;;;;21.47;76.81;98292.47;5083514;28;20233;-74
2021/06/26 09:27:58;;;;;;;23.47;21.47;;;;;;;21.40;71.86;98279.91;5084791;28;20328;-72
2021/06/26 09:30:34;;;;;;;23.43;21.53;;;;;;;21.31;75.15;98283.94;5082538;28;20284;-72
2021/06/26 09:33:10;;;;;;;23.13;21.03;;;;;;;21.25;75.72;98280.31;5080755;28;20198;-73
2021/06/26 09:35:39;;;;;;;19.37;17.77;;;;;;;21.37;73.97;98274.94;5084706;28;20213;-73
2021/06/26 09:38:09;;;;;;;19.47;17.87;;;;;;;21.55;73.55;98292.16;5085775;28;20218;-72
2021/06/26 09:40:41;;;;;;;19.40;17.90;;;;;;;21.64;73.65;98279.22;5082445;28;20198;-73
2021/06/26 09:43:09;;;;;;;20.37;18.37;;;;;;;21.88;70.67;98285.50;5085667;28;20194;-72
2021/06/26 09:45:37;;;;;;;21.20;19.40;;;;;;;21.45;71.20;98283.78;5084604;28;20222;-73
2021/06/26 09:48:07;;;;;;;18.77;17.27;;;;;;;22.03;67.93;98282.38;5085090;28;20230;-71
2021/06/26 09:50:38;;;;;;;19.37;17.87;;;;;;;21.88;68.67;98277.41;5083864;28;20710;-71
2021/06/26 09:53:08;;;;;;;17.67;16.03;;;;;;;22.17;71.11;98282.13;5083791;28;20202;-72
2021/06/26 09:55:40;;;;;;;18.77;17.00;;;;;;;22.39;64.38;98277.00;5086508;28;20199;-71
2021/06/26 09:58:09;;;;;;;18.17;16.43;;;;;;;22.47;63.98;98281.25;5083647;28;20602;-73
2021/06/26 10:00:40;;;;;;;15.30;14.10;;;;;;;22.30;66.43;98284.59;5084231;28;20676;-71
2021/06/26 10:03:09;;;;;;;15.87;14.57;;;;;;;22.43;63.28;98278.16;5084868;28;20582;-71
2021/06/26 10:05:37;;;;;;;13.37;12.37;;;;;;;22.36;60.29;98272.06;5083674;28;20226;-71
2021/06/26 10:08:08;;;;;;;13.77;12.50;;;;;;;22.39;61.34;98277.00;5083569;28;20218;-71
2021/06/26 10:10:36;;;;;;;13.50;12.50;;;;;;;22.60;64.03;98272.09;5081438;28;20198;-71
2021/06/26 10:13:05;;;;;;;12.57;11.47;;;;;;;22.44;62.40;98274.41;5081493;28;20206;-72
2021/06/26 10:15:34;;;;;;;10.47;9.77;;;;;;;22.54;59.15;98276.56;5081063;28;20206;-72
2021/06/26 10:18:03;;;;;;;9.20;8.50;;;;;;;22.78;53.78;98271.97;5082733;28;20272;-71
2021/06/26 10:20:31;;;;;;;9.03;8.33;;;;;;;22.58;58.17;98266.94;5081946;28;20217;-71
2021/06/26 10:23:02;;;;;;;8.63;8.03;;;;;;;22.76;59.27;98262.47;5082876;28;20572;-72
2021/06/26 10:25:32;;;;;;;9.40;8.53;;;;;;;23.03;54.62;98264.63;5078420;28;20222;-72
2021/06/26 10:28:07;;;;;;;9.03;8.43;;;;;;;22.97;55.42;98269.94;5082390;28;20547;-71
2021/06/26 10:30:36;;;;;;;8.30;7.47;;;;;;;23.23;54.50;98266.91;5080617;28;20206;-71
2021/06/26 10:33:08;;;;;;;8.63;8.03;;;;;;;23.28;54.00;98267.03;5081570;28;20236;-73
2021/06/26 10:35:39;;;;;;;8.57;7.97;;;;;;;22.90;51.91;98261.13;5082749;28;20206;-71
2021/06/26 10:38:09;;;;;;;8.17;7.60;;;;;;;23.29;53.51;98263.28;5085667;28;20228;-72
2021/06/26 10:40:46;;;;;;;7.97;7.47;;;;;;;23.40;54.68;98248.91;5081455;28;20206;-72
2021/06/26 10:43:19;;;;;;;8.80;8.20;;;;;;;23.82;54.35;98252.34;5085657;28;20503;-71
2021/06/26 10:45:49;;;;;;;8.20;7.50;;;;;;;24.32;53.37;98247.22;5080357;28;20657;-72
2021/06/26 10:48:18;;;;;;;8.60;8.10;;;;;;;24.54;50.65;98244.56;5082761;28;20281;-72
2021/06/26 10:50:49;;;;;;;8.40;7.80;;;;;;;25.34;48.70;98244.22;5081721;28;20202;-72
2021/06/26 10:53:38;;;;;;;8.40;7.83;;;;;;;25.61;49.59;98237.19;5083108;28;20208;-72
2021/06/26 10:56:10;;;;;;;7.33;6.87;;;;;;;25.32;49.37;98238.25;5072862;28;20198;-72
2021/06/26 10:58:39;;;;;;;6.73;6.33;;;;;;;26.46;42.52;98233.81;5081111;28;20218;-72
2021/06/26 11:01:19;;;;;;;7.10;6.50;;;;;;;26.41;42.68;98234.59;5084658;28;20205;-73
2021/06/26 11:03:50;;;;;;;8.23;7.53;;;;;;;27.45;40.34;98237.78;5081087;28;20296;-72
2021/06/26 11:06:23;;;;;;;7.67;7.07;;;;;;;25.27;46.83;98247.13;5080782;28;20223;-72
2021/06/26 11:08:59;;;;;;;8.00;7.43;;;;;;;25.38;43.37;98245.34;5080985;28;20226;-71
2021/06/26 11:11:39;;;;;;;7.93;7.43;;;;;;;25.22;44.54;98244.38;5085081;28;20202;-72
2021/06/26 11:14:16;;;;;;;8.90;8.23;;;;;;;24.51;47.14;98245.06;5080369;28;20198;-73
2021/06/26 11:16:49;;;;;;;7.93;7.43;;;;;;;24.76;48.62;98243.81;5083054;28;20215;-72
2021/06/26 11:19:17;;;;;;;7.87;7.30;;;;;;;26.15;41.87;98231.72;5081194;28;20222;-72
2021/06/26 11:21:47;;;;;;;7.83;7.30;;;;;;;26.18;41.90;98233.09;5084079;28;20206;-73